Flight Track Log - Related Links

Times and Time Zones

All times are in EDT time to prevent confusion due to time zone crossing. See the AAL1593 flight status page for this flight to view local times or setup timezone preferences in your user account.

Time Position Orientation Groundspeed Altitude Reporting Facility
EDT Latitude Longitude Course Direction KTS MPH feet Rate Location/Type
Thu 04:43:58 PM 32.8860 -97.0300 180° South 149 171 1,400  Level FlightAware ADS-B
Thu 04:44:20 PM 32.8690 -97.0300 180° South 155 178 2,200 1,680 Climbing FlightAware ADS-B
Thu 04:44:48 PM 32.8460 -97.0300 180° South 187 215 2,800 1,375 Climbing FlightAware ADS-B
Thu 04:45:08 PM 32.8280 -97.0300 180° South 212 244 3,300 1,773 Climbing FlightAware ADS-B
Thu 04:45:32 PM 32.8020 -97.0300 180° South 238 274 4,100 2,455 Climbing FlightAware ADS-B
Thu 04:45:52 PM 32.7790 -97.0300 180° South 242 278 5,100 3,000 Climbing FlightAware ADS-B
Thu 04:46:08 PM 32.7620 -97.0300 180° South 244 281 5,900 2,760 Climbing FlightAware ADS-B
Thu 04:46:42 PM 32.7220 -97.0250 174° South 260 299 7,400 2,714 Climbing FlightAware ADS-B
Thu 04:46:50 PM 32.7140 -97.0200 152° Southeast 265 305 7,800 2,500 Climbing FlightAware ADS-B
Thu 04:46:54 PM 32.7100 -97.0160 140° Southeast 267 307 7,900 2,000 Climbing FlightAware ADS-B
Thu 04:47:02 PM 32.7040 -97.0050 123° Southeast 275 316 8,200 2,250 Climbing FlightAware ADS-B
Thu 04:47:10 PM 32.7010 -96.9940 108° East 285 328 8,500 2,286 Climbing FlightAware ADS-B
Thu 04:47:23 PM 32.6960 -96.9750 107° East 289 333 9,000 2,438 Climbing FlightAware ADS-B
Thu 04:47:42 PM 32.6900 -96.9440 103° East 292 336 9,800 2,222 Climbing FlightAware ADS-B
Thu 04:47:50 PM 32.6890 -96.9310 95° East 292 336 10,000 439 Climbing FlightAware ADS-B
Thu 04:48:23 PM 32.6930 -96.8810 85° East 293 337 10,100 87 Climbing FlightAware ADS-B
Thu 04:48:59 PM 32.6960 -96.8220 87° East 296 341 10,100  Level FlightAware ADS-B
Thu 04:49:23 PM 32.7050 -96.7830 75° East 319 367 10,100 207 Level FlightAware ADS-B
Thu 04:49:57 PM 32.7250 -96.7270 67° East 343 395 10,300 1,286 Climbing FlightAware ADS-B
Thu 04:50:33 PM 32.7490 -96.6600 67° East 361 415 11,600 2,250 Climbing FlightAware ADS-B
Thu 04:51:09 PM 32.7720 -96.5950 67° East 371 427 13,000 1,941 Climbing FlightAware ADS-B
Thu 04:51:41 PM 32.7950 -96.5320 67° East 391 450 13,800 2,029 Climbing FlightAware ADS-B
Thu 04:52:17 PM 32.8210 -96.4590 67° East 393 452 15,300 2,118 Climbing FlightAware ADS-B
Thu 04:52:49 PM 32.8430 -96.3960 67° East 406 467 16,200 1,875 Climbing FlightAware ADS-B
Thu 04:53:21 PM 32.8640 -96.3270 70° East 411 473 17,300 2,045 Climbing FlightAware ADS-B
Thu 04:53:33 PM 32.8660 -96.3000 85° East 413 475 17,700 1,875 Climbing FlightAware ADS-B
Thu 04:54:09 PM 32.8680 -96.2170 88° East 420 483 18,800 1,412 Climbing FlightAware ADS-B
Thu 04:54:41 PM 32.8690 -96.1400 89° East 436 502 19,300 1,100 Climbing FlightAware ADS-B
Thu 04:55:09 PM 32.8700 -96.0740 89° East 446 513 19,900 1,406 Climbing FlightAware ADS-B
Thu 04:55:45 PM 32.8720 -95.9860 88° East 452 520 20,800 1,378 Climbing FlightAware ADS-B
Thu 04:56:23 PM 32.8730 -95.8910 89° East 459 528 21,600 1,352 Climbing FlightAware ADS-B
Thu 04:56:56 PM 32.8748 -95.8061 89° East 464 534 22,400 1,457 Climbing FlightAware ADS-B
Thu 04:57:33 PM 32.8763 -95.7120 89° East 469 540 23,300 1,397 Climbing FlightAware ADS-B
Thu 04:58:09 PM 32.8780 -95.6210 89° East 471 542 24,100 1,325 Climbing FlightAware ADS-B
Thu 04:58:50 PM 32.8790 -95.5150 89° East 476 548 25,000 1,315 Climbing FlightAware ADS-B
Thu 04:59:22 PM 32.8800 -95.4330 89° East 478 550 25,700 1,151 Climbing FlightAware ADS-B
Thu 05:00:03 PM 32.8880 -95.3220 85° East 479 551 26,400 1,034 Climbing FlightAware ADS-B
Thu 05:00:20 PM 32.8951 -95.2754 80° East 487 560 26,700 875 Climbing FlightAware ADS-B
Thu 05:00:51 PM 32.9078 -95.1923 80° East 496 571 27,100 1,021 Climbing FlightAware ADS-B
Thu 05:01:54 PM 32.9336 -95.0217 80° East 499 574 28,300 1,346 Climbing FlightAware ADS-B
Thu 05:02:38 PM 32.9520 -94.9010 80° East 501 577 29,500 1,610 Climbing FlightAware ADS-B
Thu 05:03:16 PM 32.9670 -94.8010 80° East 500 575 30,500 1,769 Climbing FlightAware ADS-B
Thu 05:03:56 PM 32.9830 -94.6940 80° East 494 568 31,800 1,694 Climbing FlightAware ADS-B
Thu 05:04:41 PM 33.0010 -94.5720 80° East 496 571 32,900 1,571 Climbing FlightAware ADS-B
Thu 05:05:20 PM 33.0150 -94.4730 80° East 493 567 34,000 1,880 Climbing FlightAware ADS-B
Thu 05:06:04 PM 33.0330 -94.3520 80° East 485 558 35,500 1,579 Climbing FlightAware ADS-B
Thu 05:06:36 PM 33.0450 -94.2680 80° East 489 563 36,000 1,220 Climbing FlightAware ADS-B
Thu 05:07:03 PM 33.0560 -94.1934 80° East 488 562 36,700 1,345 Climbing FlightAware ADS-B
Thu 05:07:34 PM 33.0677 -94.1121 80° East 487 560 37,300 1,235 Climbing FlightAware ADS-B
Thu 05:08:11 PM 33.0817 -94.0145 80° East 485 558 38,100 830 Climbing FlightAware ADS-B
Thu 05:09:08 PM 33.1020 -93.8760 80° East 483 556 38,600 621 Climbing FlightAware ADS-B
Thu 05:09:38 PM 33.1138 -93.7870 81° East 484 557 39,000 316 Climbing FlightAware ADS-B
Thu 05:10:24 PM 33.1310 -93.6670 80° East 483 556 39,000  Level FlightAware ADS-B
Thu 05:10:37 PM 33.1358 -93.6305 81° East 485 558 39,000  Level FlightAware ADS-B
Thu 05:11:40 PM 33.1590 -93.4670 80° East 486 559 39,000  Level FlightAware ADS-B
Thu 05:12:11 PM 33.1690 -93.3960 80° East 486 559 39,000  Level FlightAware ADS-B
Thu 05:12:48 PM 33.1810 -93.3130 80° East 486 559 39,000  Level FlightAware ADS-B
Thu 05:13:30 PM 33.1980 -93.1760 82° East 488 562 39,000  Level FlightAware ADS-B
Thu 05:14:04 PM 33.2110 -93.0850 80° East 488 562 39,000  Level FlightAware ADS-B
Thu 05:14:44 PM 33.2240 -92.9890 81° East 488 562 39,000  Level FlightAware ADS-B
Thu 05:15:20 PM 33.2360 -92.9080 80° East 488 562 39,000  Level FlightAware ADS-B
Thu 05:15:56 PM 33.2480 -92.8260 80° East 488 562 39,000  Level FlightAware ADS-B
Thu 05:16:32 PM 33.2600 -92.7450 80° East 488 562 39,000  Level FlightAware ADS-B
Thu 05:17:09 PM 33.2730 -92.6610 79° East 488 562 39,000  Level FlightAware ADS-B
Thu 05:17:45 PM 33.2850 -92.5800 80° East 488 562 39,000  Level FlightAware ADS-B
Thu 05:18:21 PM 33.2970 -92.4990 80° East 488 562 39,000  Level FlightAware ADS-B
Thu 05:18:57 PM 33.3090 -92.4170 80° East 488 562 39,000  Level FlightAware ADS-B
Thu 05:19:33 PM 33.3210 -92.3360 80° East 488 562 39,000  Level FlightAware ADS-B
Thu 05:20:10 PM 33.3330 -92.2520 80° East 488 562 39,000  Level FlightAware ADS-B
Thu 05:20:46 PM 33.3450 -92.1710 80° East 488 562 39,000  Level FlightAware ADS-B
Thu 05:21:22 PM 33.3570 -92.0890 80° East 488 562 39,000  Level FlightAware ADS-B
Thu 05:21:58 PM 33.3690 -92.0080 80° East 488 562 39,000  Level FlightAware ADS-B
Thu 05:22:34 PM 33.3810 -91.9260 80° East 488 562 39,000  Level FlightAware ADS-B
Thu 05:23:10 PM 33.3930 -91.8450 80° East 488 562 39,000  Level FlightAware ADS-B
Thu 05:23:46 PM 33.4050 -91.7630 80° East 488 562 39,000  Level FlightAware ADS-B
Thu 05:25:00 PM 33.3778 -91.3425 80° East 482 555 39,000  Level Memphis Center
Thu 05:26:00 PM 33.3936 -91.1808 83° East 482 555 39,000  Level Memphis Center
Thu 05:27:00 PM 33.4050 -91.0217 85° East 482 555 39,000  Level Memphis Center
Thu 05:28:00 PM 33.4183 -90.8625 84° East 482 555 39,000  Level Memphis Center
Thu 05:29:00 PM 33.4314 -90.7131 84° East 482 555 39,000  Level Memphis Center
Thu 05:30:00 PM 33.4419 -90.5514 85° East 482 555 39,000  Level Memphis Center
Thu 05:31:00 PM 33.4547 -90.3922 84° East 482 555 39,000  Level Memphis Center
Thu 05:32:00 PM 33.4650 -90.2328 86° East 482 555 39,000  Level Memphis Center
Thu 05:37:56 PM 33.4800 -89.2550 86° East 484 557 39,000  Level FlightAware ADS-B
Thu 05:38:30 PM 33.4810 -89.1650 89° East 484 557 39,000  Level FlightAware ADS-B
Thu 05:39:03 PM 33.4820 -89.0740 89° East 486 559 39,000  Level FlightAware ADS-B
Thu 05:39:39 PM 33.4830 -88.9810 89° East 487 560 39,000  Level FlightAware ADS-B
Thu 05:40:31 PM 33.4840 -88.8500 89° East 487 560 39,000  Level FlightAware ADS-B
Thu 05:41:00 PM 33.4840 -88.7580 90° East 486 559 39,000  Level FlightAware ADS-B
Thu 05:41:36 PM 33.4850 -88.6620 89° East 485 558 39,000  Level FlightAware ADS-B
Thu 05:42:11 PM 33.4850 -88.5690 90° East 484 557 39,000  Level FlightAware ADS-B
Thu 05:42:48 PM 33.4910 -88.4710 86° East 482 555 39,000  Level FlightAware ADS-B
Thu 05:43:23 PM 33.5020 -88.3790 82° East 481 554 39,000  Level FlightAware ADS-B
Thu 05:43:58 PM 33.5130 -88.2890 82° East 481 554 39,000  Level FlightAware ADS-B
Thu 05:44:34 PM 33.5240 -88.1920 82° East 482 555 39,000  Level FlightAware ADS-B
Thu 05:45:09 PM 33.5350 -88.1020 82° East 482 555 39,000  Level FlightAware ADS-B
Thu 05:45:39 PM 33.5450 -88.0200 82° East 484 557 39,000  Level FlightAware ADS-B
Thu 05:46:24 PM 33.5590 -87.9000 82° East 484 557 39,000  Level FlightAware ADS-B
Thu 05:46:59 PM 33.5690 -87.8090 82° East 486 559 39,000  Level FlightAware ADS-B
Thu 05:47:34 PM 33.5800 -87.7130 82° East 487 560 39,000  Level FlightAware ADS-B
Thu 05:48:08 PM 33.5900 -87.6230 82° East 487 560 39,000  Level FlightAware ADS-B
Thu 05:48:43 PM 33.6000 -87.5400 82° East 487 560 39,000  Level FlightAware ADS-B
Thu 05:49:19 PM 33.6100 -87.4580 82° East 487 560 39,000  Level FlightAware ADS-B
Thu 05:49:56 PM 33.6190 -87.3740 83° East 487 560 39,000  Level FlightAware ADS-B
Thu 05:50:32 PM 33.6218 -87.2361 89° East 483 556 39,000  Level FlightAware ADS-B
Thu 05:51:06 PM 33.6380 -87.2150 47° Northeast 487 560 39,000  Level FlightAware ADS-B
Thu 05:51:43 PM 33.6480 -87.1300 82° East 487 560 39,000  Level FlightAware ADS-B
Thu 05:52:15 PM 33.6250 -86.9620 99° East 482 555 39,000  Level FlightAware ADS-B
Thu 05:52:51 PM 33.6260 -86.8740 89° East 481 554 39,000  Level FlightAware ADS-B
Thu 05:53:12 PM 33.6270 -86.8113 89° East 480 552 39,000  Level FlightAware ADS-B
Thu 05:53:44 PM 33.6279 -86.7256 89° East 480 552 39,000  Level FlightAware ADS-B
Thu 05:54:31 PM 33.6291 -86.6016 89° East 481 554 39,000  Level FlightAware ADS-B
Thu 05:55:02 PM 33.6297 -86.5166 89° East 482 555 39,000  Level FlightAware ADS-B
Thu 05:55:40 PM 33.6304 -86.4180 89° East 484 557 39,000  Level FlightAware ADS-B
Thu 05:56:28 PM 33.6313 -86.2882 89° East 484 557 39,000  Level FlightAware ADS-B
Thu 05:57:03 PM 33.6319 -86.1943 90° East 487 560 39,000  Level FlightAware ADS-B
Thu 05:57:33 PM 33.6322 -86.1146 90° East 488 562 39,000  Level FlightAware ADS-B
Thu 05:58:04 PM 33.6325 -86.0290 90° East 489 563 39,000  Level FlightAware ADS-B
Thu 05:58:35 PM 33.6329 -85.9455 90° East 490 564 39,000  Level FlightAware ADS-B
Thu 05:59:05 PM 33.6331 -85.8622 90° East 491 565 39,000  Level FlightAware ADS-B
Thu 05:59:39 PM 33.6333 -85.7716 90° East 491 565 39,000  Level FlightAware ADS-B
Thu 06:00:13 PM 33.6334 -85.6788 90° East 491 565 39,000  Level FlightAware ADS-B
Thu 06:00:52 PM 33.6335 -85.5727 90° East 490 564 39,000  Level FlightAware ADS-B
Thu 06:01:25 PM 33.6336 -85.4822 90° East 490 564 39,000  Level FlightAware ADS-B
Thu 06:01:55 PM 33.6334 -85.3994 90° East 490 564 39,000  Level FlightAware ADS-B
Thu 06:02:30 PM 33.6330 -85.3100 90° East 489 563 39,000  Level FlightAware ADS-B
Thu 06:02:48 PM 33.6332 -85.2590 90° East 489 563 39,000  Level FlightAware ADS-B
Thu 06:03:19 PM 33.6329 -85.1744 90° East 489 563 39,000  Level FlightAware ADS-B
Thu 06:03:52 PM 33.6326 -85.0853 90° East 489 563 39,000  Level FlightAware ADS-B
Thu 06:04:22 PM 33.6323 -85.0051 90° East 488 562 39,000  Level FlightAware ADS-B
Thu 06:04:56 PM 33.6319 -84.9131 90° East 487 560 39,000  Level FlightAware ADS-B
Thu 06:05:28 PM 33.6310 -84.8260 91° East 486 559 39,000  Level FlightAware ADS-B
Thu 06:05:37 PM 33.6314 -84.8043 89° East 485 558 39,000 -615 Level FlightAware ADS-B
Thu 06:06:07 PM 33.6309 -84.7230 90° East 485 558 38,600 -871 Descending FlightAware ADS-B
Thu 06:06:39 PM 33.6302 -84.6350 91° East 486 559 38,100 -952 Descending FlightAware ADS-B
Thu 06:07:10 PM 33.6299 -84.5538 90° East 491 565 37,600 -982 Descending FlightAware ADS-B
Thu 06:07:34 PM 33.6328 -84.4902 87° East 494 568 37,200 -1,019 Descending FlightAware ADS-B
Thu 06:08:03 PM 33.6425 -84.4093 82° East 498 573 36,700 -900 Descending FlightAware ADS-B
Thu 06:08:14 PM 33.6481 -84.3788 78° East 499 574 36,600 -923 Descending FlightAware ADS-B
Thu 06:08:29 PM 33.6568 -84.3396 75° East 500 575 36,300 -980 Descending FlightAware ADS-B
Thu 06:09:03 PM 33.6818 -84.2489 72° East 499 574 35,800 -1,000 Descending FlightAware ADS-B
Thu 06:09:35 PM 33.7046 -84.1679 71° East 502 578 35,200 -774 Descending FlightAware ADS-B
Thu 06:10:05 PM 33.7275 -84.0864 71° East 502 578 35,000 -200 Descending FlightAware ADS-B
Thu 06:10:35 PM 33.7498 -84.0064 71° East 503 579 35,000  Level FlightAware ADS-B
Thu 06:11:05 PM 33.7723 -83.9258 71° East 503 579 35,000  Level FlightAware ADS-B
Thu 06:12:07 PM 33.8179 -83.7629 71° East 504 580 35,000  Level FlightAware ADS-B
Thu 06:12:40 PM 33.8422 -83.6751 72° East 503 579 35,000 -333 Level FlightAware ADS-B
Thu 06:13:19 PM 33.8702 -83.5732 72° East 500 575 34,600 -696 Descending FlightAware ADS-B
Thu 06:13:49 PM 33.8910 -83.4980 72° East 495 570 34,200 -873 Descending FlightAware ADS-B
Thu 06:14:14 PM 33.9102 -83.4279 72° East 495 570 33,800 -1,014 Descending FlightAware ADS-B
Thu 06:15:00 PM 33.9500 -83.3100 68° East 497 572 33,000 -1,082 Descending FlightAware ADS-B
Thu 06:15:15 PM 33.9639 -83.2735 65° Northeast 497 572 32,700 -960 Descending FlightAware ADS-B
Thu 06:15:50 PM 33.9969 -83.1840 66° East 497 572 32,200 -917 Descending FlightAware ADS-B
Thu 06:16:27 PM 34.0305 -83.0928 66° East 496 571 31,600 -1,068 Descending FlightAware ADS-B
Thu 06:17:03 PM 34.0646 -83.0003 66° East 494 568 30,900 -1,040 Descending FlightAware ADS-B
Thu 06:17:42 PM 34.0993 -82.9056 66° East 487 560 30,300 -917 Descending FlightAware ADS-B
Thu 06:18:15 PM 34.1301 -82.8213 66° East 484 557 29,800 -1,000 Descending FlightAware ADS-B
Thu 06:19:06 PM 34.1750 -82.6980 66° East 478 550 28,900 -1,034 Descending FlightAware ADS-B
Thu 06:19:42 PM 34.2060 -82.6120 66° East 479 551 28,300 -1,644 Descending FlightAware ADS-B
Thu 06:20:19 PM 34.2390 -82.5210 66° East 473 544 26,900 -2,314 Descending FlightAware ADS-B
Thu 06:20:52 PM 34.2670 -82.4440 66° East 468 539 25,600 -2,328 Descending FlightAware ADS-B
Thu 06:21:26 PM 34.2970 -82.3600 67° East 460 529 24,300 -1,352 Descending FlightAware ADS-B
Thu 06:22:03 PM 34.3270 -82.2760 67° East 451 519 24,000 -243 Descending FlightAware ADS-B
Thu 06:22:40 PM 34.3580 -82.1910 66° East 450 518 24,000 -321 Level FlightAware ADS-B
Thu 06:22:59 PM 34.3750 -82.1480 64° Northeast 450 518 23,700 -3,000 Descending FlightAware ADS-B
Thu 06:23:36 PM 34.4190 -82.0730 55° Northeast 446 513 21,200 -3,826 Descending FlightAware ADS-B
Thu 06:24:08 PM 34.4570 -82.0080 55° Northeast 435 501 19,300 -2,687 Descending FlightAware ADS-B
Thu 06:24:43 PM 34.4980 -81.9400 54° Northeast 421 484 18,200 -1,750 Descending FlightAware ADS-B
Thu 06:25:20 PM 34.5390 -81.8710 54° Northeast 411 473 17,200 -1,714 Descending FlightAware ADS-B
Thu 06:25:53 PM 34.5750 -81.8100 54° Northeast 405 466 16,200 -1,818 Descending FlightAware ADS-B
Thu 06:26:26 PM 34.6120 -81.7480 54° Northeast 399 459 15,200 -1,800 Descending FlightAware ADS-B
Thu 06:27:03 PM 34.6510 -81.6820 54° Northeast 394 453 14,100 -868 Descending FlightAware ADS-B
Thu 06:27:42 PM 34.6870 -81.6220 54° Northeast 394 453 14,100 -1,765 Level FlightAware ADS-B
Thu 06:28:11 PM 34.7230 -81.5600 55° Northeast 385 443 12,100 -1,692 Descending FlightAware ADS-B
Thu 06:29:00 PM 34.7710 -81.4950 48° Northeast 373 429 11,900 -207 Descending FlightAware ADS-B
Thu 06:29:38 PM 34.8230 -81.4280 47° Northeast 366 421 11,800 -83 Descending FlightAware ADS-B
Thu 06:30:12 PM 34.8570 -81.3850 46° Northeast 367 422 11,800  Level FlightAware ADS-B
Thu 06:30:48 PM 34.8930 -81.3390 46° Northeast 367 422 11,800  Level FlightAware ADS-B
Thu 06:31:24 PM 34.9290 -81.2940 46° Northeast 367 422 11,800 -823 Level FlightAware ADS-B
Thu 06:35:02 PM 35.1830 -81.0660 36° Northeast 8,700 -946 Descending FlightAware ADS-B
Thu 06:35:25 PM 35.2100 -81.0680 357° North 243 280 8,000 -1,941 Descending FlightAware ADS-B
Thu 06:36:10 PM 35.2650 -81.0730 356° North 241 277 6,500 -1,818 Descending FlightAware ADS-B
Thu 06:36:31 PM 35.2850 -81.0750 355° North 240 276 6,000 -1,000 Descending FlightAware ADS-B
Thu 06:36:52 PM 35.3100 -81.0770 356° North 240 276 5,800 -245 Descending FlightAware ADS-B
Thu 06:37:20 PM 35.3400 -81.0800 355° North 239 275 5,800 130 Level FlightAware ADS-B
Thu 06:37:38 PM 35.3560 -81.0810 357° North 221 254 5,900 -450 Climbing FlightAware ADS-B
Thu 06:38:00 PM 35.3800 -81.0830 356° North 211 243 5,500 -1,231 Descending FlightAware ADS-B
Thu 06:38:17 PM 35.3950 -81.0830 360° North 211 243 5,100 -1,235 Descending FlightAware ADS-B
Thu 06:38:34 PM 35.4080 -81.0740 29° Northeast 197 227 4,800 -1,448 Descending FlightAware ADS-B
Thu 06:38:46 PM 35.4130 -81.0600 66° East 193 222 4,400 -2,000 Descending FlightAware ADS-B
Thu 06:38:52 PM 35.4140 -81.0530 80° East 188 216 4,200 -1,000 Descending FlightAware ADS-B
Thu 06:39:22 PM 35.4080 -81.0250 105° East 183 211 3,800 -522 Descending FlightAware ADS-B
Thu 06:39:38 PM 35.3970 -81.0130 138° Southeast 184 212 3,800  Level FlightAware ADS-B
Thu 06:39:56 PM 35.3850 -81.0020 143° Southeast 183 211 3,800 -343 Level FlightAware ADS-B
Thu 06:40:13 PM 35.3740 -80.9900 138° Southeast 177 204 3,600 -1,050 Descending FlightAware ADS-B
Thu 06:40:36 PM 35.3580 -80.9800 153° Southeast 169 194 3,100 -1,241 Descending FlightAware ADS-B
Thu 06:40:42 PM 35.3540 -80.9790 168° South 165 190 3,000 -1,000 Descending FlightAware ADS-B
Thu 06:41:00 PM 35.3410 -80.9770 173° South 166 191 2,700 -600 Descending FlightAware ADS-B
Thu 06:41:22 PM 35.3250 -80.9760 177° South 158 182 2,600 -490 Descending FlightAware ADS-B
Thu 06:41:49 PM 35.3050 -80.9750 178° South 143 165 2,300 -955 Descending FlightAware ADS-B
Thu 06:42:06 PM 35.2960 -80.9740 175° South 144 166 1,900 -1,077 Descending FlightAware ADS-B
Thu 06:42:28 PM 35.2800 -80.9720 174° South 140 161 1,600 -720 Descending FlightAware ADS-B
Thu 06:42:56 PM 35.2630 -80.9710 177° South 136 157 1,300 -652 Descending FlightAware ADS-B
Thu 06:43:14 PM 35.2520 -80.9700 176° South 137 158 1,100 -387 Descending FlightAware ADS-B
Thu 06:43:58 PM 35.2280 -80.9680 176° South 137 158 900 -273 Descending FlightAware ADS-B

Login

Don't have an account? Register now (free) for customized features, flight alerts, and more!